createdAt,value
2017-11-01T00:00:25.654Z,88.31
2017-11-01T00:02:53.056Z,87.89
2017-11-01T00:05:20.446Z,87.92
2017-11-01T00:07:47.851Z,88.29
2017-11-01T00:10:15.251Z,89.27
2017-11-01T00:12:42.730Z,88.65
2017-11-01T00:15:10.122Z,89.07
2017-11-01T00:17:37.527Z,89.00
2017-11-01T00:20:05.015Z,89.06
2017-11-01T00:22:32.419Z,89.28
2017-11-01T00:24:59.848Z,88.78
2017-11-01T00:27:27.267Z,89.40
2017-11-01T00:29:54.658Z,89.06
2017-11-01T00:32:22.063Z,88.84
2017-11-01T00:34:49.528Z,89.00
2017-11-01T00:37:17.001Z,88.86
2017-11-01T00:39:44.391Z,89.50
2017-11-01T00:42:11.815Z,89.37
2017-11-01T00:44:39.210Z,89.21
2017-11-01T00:47:06.602Z,89.24
2017-11-01T00:49:34.078Z,88.72
2017-11-01T00:52:01.462Z,87.89
2017-11-01T00:54:28.863Z,87.94
2017-11-01T00:56:56.255Z,88.56
2017-11-01T00:59:23.687Z,88.60
2017-11-01T01:01:51.078Z,88.90
2017-11-01T01:04:18.486Z,88.39
2017-11-01T01:06:45.875Z,87.77
2017-11-01T01:09:13.283Z,87.74
2017-11-01T01:11:40.676Z,88.04
2017-11-01T01:14:08.102Z,88.22
2017-11-01T01:16:35.499Z,88.28
2017-11-01T01:19:02.902Z,88.31
2017-11-01T01:21:30.305Z,88.55
2017-11-01T01:23:57.718Z,88.24
2017-11-01T01:26:25.119Z,88.40
2017-11-01T01:28:52.540Z,88.28
2017-11-01T01:31:19.966Z,88.17
2017-11-01T01:33:47.370Z,88.16
2017-11-01T01:36:14.763Z,88.29
2017-11-01T01:38:42.163Z,88.87
2017-11-01T01:41:09.552Z,89.44
2017-11-01T01:43:36.938Z,89.01
2017-11-01T01:46:04.352Z,89.04
2017-11-01T01:48:31.738Z,88.90
2017-11-01T01:50:59.134Z,89.41
2017-11-01T01:53:26.527Z,89.74
2017-11-01T01:55:53.938Z,89.68
2017-11-01T01:58:21.336Z,89.96
2017-11-01T02:00:48.763Z,89.98
2017-11-01T02:03:16.147Z,89.49
2017-11-01T02:05:43.554Z,88.77
2017-11-01T02:08:10.958Z,88.36
2017-11-01T02:10:38.362Z,88.23
2017-11-01T02:13:05.755Z,88.93
2017-11-01T02:15:33.155Z,88.99
2017-11-01T02:18:00.552Z,88.77
2017-11-01T02:20:27.970Z,88.65
2017-11-01T02:22:55.387Z,88.25
2017-11-01T02:25:22.780Z,88.14
2017-11-01T02:27:50.176Z,88.11
2017-11-01T02:30:17.575Z,87.89
2017-11-01T02:32:44.962Z,88.12
2017-11-01T02:35:12.363Z,88.95
2017-11-01T02:37:39.901Z,89.11
2017-11-01T02:40:07.299Z,88.78
2017-11-01T02:42:34.700Z,88.76
2017-11-01T02:45:02.098Z,89.21
2017-11-01T02:47:30.444Z,88.82
2017-11-01T02:49:57.840Z,89.03
2017-11-01T02:52:25.244Z,89.08
2017-11-01T02:54:52.635Z,89.01
2017-11-01T02:57:20.051Z,89.17
2017-11-01T02:59:49.731Z,89.37
2017-11-01T03:02:17.140Z,89.94
2017-11-01T03:04:44.538Z,89.78
2017-11-01T03:07:11.927Z,89.22
2017-11-01T03:09:39.318Z,89.74
2017-11-01T03:12:06.719Z,89.83
2017-11-01T03:14:34.116Z,89.51
2017-11-01T03:17:01.517Z,89.95
2017-11-01T03:19:28.923Z,89.58
2017-11-01T03:21:56.322Z,89.83
2017-11-01T03:24:23.719Z,89.31
2017-11-01T03:26:51.118Z,89.47
2017-11-01T03:29:18.515Z,89.27
2017-11-01T03:31:45.914Z,89.21
2017-11-01T03:34:13.306Z,89.12
2017-11-01T03:36:40.711Z,89.41
2017-11-01T03:39:08.115Z,89.87
2017-11-01T03:41:35.503Z,90.35
2017-11-01T03:44:02.907Z,90.46
2017-11-01T03:46:30.303Z,90.35
2017-11-01T03:48:57.700Z,89.88
2017-11-01T03:51:25.091Z,90.02
2017-11-01T03:53:52.492Z,89.71
2017-11-01T03:56:19.881Z,89.40
2017-11-01T03:58:47.283Z,90.09
2017-11-01T04:01:16.569Z,89.67
2017-11-01T04:03:43.971Z,89.69
2017-11-01T04:06:11.361Z,89.51
2017-11-01T04:08:38.758Z,89.22
2017-11-01T04:11:06.146Z,88.99
2017-11-01T04:13:33.568Z,88.30
2017-11-01T04:16:00.956Z,88.66
2017-11-01T04:18:33.771Z,88.71
2017-11-01T04:21:01.154Z,88.36
2017-11-01T04:23:28.563Z,88.83
2017-11-01T04:25:55.956Z,88.47
2017-11-01T04:28:23.355Z,89.41
2017-11-01T04:30:50.754Z,89.54
2017-11-01T04:33:18.155Z,89.01
2017-11-01T04:35:45.550Z,89.44
2017-11-01T04:38:12.953Z,89.24
2017-11-01T04:40:40.334Z,89.12
2017-11-01T04:43:07.740Z,88.40
2017-11-01T04:45:35.126Z,87.96
2017-11-01T04:48:02.530Z,88.10
2017-11-01T04:50:29.919Z,87.64
2017-11-01T04:52:57.315Z,88.92
2017-11-01T04:55:24.722Z,89.67
2017-11-01T04:57:52.120Z,89.28
2017-11-01T05:00:22.306Z,88.91
2017-11-01T05:02:49.718Z,88.88
2017-11-01T05:05:17.110Z,89.16
2017-11-01T05:07:44.519Z,89.13
2017-11-01T05:10:16.700Z,89.91
2017-11-01T05:12:44.097Z,89.97
2017-11-01T05:15:13.399Z,89.83
2017-11-01T05:17:40.795Z,90.16
2017-11-01T05:20:08.200Z,90.16
2017-11-01T05:22:35.595Z,89.73
2017-11-01T05:25:06.454Z,90.26
2017-11-01T05:27:35.758Z,89.88
2017-11-01T05:30:04.123Z,89.54
2017-11-01T05:32:31.524Z,90.78
2017-11-01T05:34:58.923Z,90.93
2017-11-01T05:37:26.321Z,90.93
2017-11-01T05:39:53.731Z,91.29
2017-11-01T05:42:21.122Z,90.96
2017-11-01T05:44:48.523Z,90.90
2017-11-01T05:47:15.923Z,90.32
2017-11-01T05:49:43.327Z,90.71
2017-11-01T05:52:10.721Z,91.49
2017-11-01T05:54:38.124Z,92.05
2017-11-01T05:57:05.519Z,92.79
2017-11-01T05:59:32.926Z,92.61
2017-11-01T06:02:00.334Z,92.45
2017-11-01T06:04:27.772Z,92.01
2017-11-01T06:06:55.171Z,91.99
2017-11-01T06:09:22.689Z,92.04
2017-11-01T06:11:50.139Z,91.82
2017-11-01T06:14:17.556Z,91.95
2017-11-01T06:16:44.961Z,91.95
2017-11-01T06:19:12.412Z,91.92
2017-11-01T06:21:39.859Z,91.65
2017-11-01T06:24:07.314Z,91.29
2017-11-01T06:26:34.731Z,91.77
2017-11-01T06:29:02.174Z,92.15
2017-11-01T06:31:29.582Z,92.35
2017-11-01T06:33:56.984Z,92.46
2017-11-01T06:36:25.299Z,92.64
2017-11-01T06:38:52.771Z,92.62
2017-11-01T06:41:20.174Z,92.85
2017-11-01T06:43:47.574Z,92.96
2017-11-01T06:46:15.020Z,92.60
2017-11-01T06:48:42.434Z,92.55
2017-11-01T06:51:09.834Z,93.26
2017-11-01T06:53:37.231Z,92.96
2017-11-01T06:56:04.648Z,92.91
2017-11-01T06:58:32.042Z,93.16
2017-11-01T07:00:59.455Z,92.95
2017-11-01T07:03:27.650Z,92.73
2017-11-01T07:05:55.107Z,92.69
2017-11-01T07:08:22.566Z,92.20
2017-11-01T07:10:49.970Z,92.08
2017-11-01T07:13:17.367Z,91.79
2017-11-01T07:15:44.837Z,91.79
2017-11-01T07:18:12.251Z,91.69
2017-11-01T07:20:39.650Z,92.36
2017-11-01T07:23:07.131Z,92.11
2017-11-01T07:25:34.550Z,92.13
2017-11-01T07:28:02.015Z,92.32
2017-11-01T07:30:29.418Z,92.30
2017-11-01T07:32:56.822Z,91.90
2017-11-01T07:35:24.218Z,91.80
2017-11-01T07:37:51.635Z,91.31
2017-11-01T07:40:19.029Z,91.65
2017-11-01T07:42:46.442Z,91.55
2017-11-01T07:45:13.921Z,91.43
2017-11-01T07:47:41.326Z,91.66
2017-11-01T07:50:08.814Z,92.22
2017-11-01T07:52:36.266Z,92.79
2017-11-01T07:55:03.723Z,92.63
2017-11-01T07:57:31.178Z,92.10
2017-11-01T07:59:58.582Z,92.52
2017-11-01T08:02:25.986Z,93.10
2017-11-01T08:04:53.394Z,92.97
2017-11-01T08:07:20.795Z,92.83
2017-11-01T08:09:48.281Z,92.20
2017-11-01T08:12:15.683Z,91.99
2017-11-01T08:14:43.094Z,91.90
2017-11-01T08:17:10.549Z,91.68
2017-11-01T08:19:37.946Z,91.69
2017-11-01T08:22:05.439Z,91.50
2017-11-01T08:24:32.839Z,91.33
2017-11-01T08:27:00.239Z,90.67
2017-11-01T08:29:27.650Z,90.86
2017-11-01T08:31:55.046Z,90.99
2017-11-01T08:34:22.458Z,90.62
2017-11-01T08:36:49.931Z,90.22
2017-11-01T08:39:17.353Z,90.42
2017-11-01T08:41:44.858Z,90.74
2017-11-01T08:44:12.297Z,91.15
2017-11-01T08:46:39.722Z,90.97
2017-11-01T08:49:07.108Z,91.23
2017-11-01T08:51:34.519Z,90.85
2017-11-01T08:54:01.919Z,91.04
2017-11-01T08:56:29.331Z,90.65
2017-11-01T08:58:56.726Z,90.69
2017-11-01T09:01:24.184Z,91.14
2017-11-01T09:03:51.647Z,90.87
2017-11-01T09:06:19.072Z,91.55
2017-11-01T09:08:46.555Z,91.68
2017-11-01T09:11:14.018Z,91.68
2017-11-01T09:13:41.435Z,91.72
2017-11-01T09:16:08.839Z,91.75
2017-11-01T09:18:36.255Z,91.64
2017-11-01T09:21:03.763Z,91.09
2017-11-01T09:23:31.166Z,91.18
2017-11-01T09:25:58.658Z,91.69
2017-11-01T09:28:26.052Z,90.99
2017-11-01T09:30:53.569Z,90.83
2017-11-01T09:33:20.967Z,91.25
2017-11-01T09:35:48.378Z,91.41
2017-11-01T09:38:15.779Z,91.57
2017-11-01T09:40:43.306Z,90.72
2017-11-01T09:43:10.708Z,90.62
2017-11-01T09:45:38.103Z,90.96
2017-11-01T09:48:05.530Z,90.36
2017-11-01T09:50:32.958Z,91.20
2017-11-01T09:53:00.369Z,91.19
2017-11-01T09:55:27.823Z,91.89
2017-11-01T09:57:55.283Z,92.54
2017-11-01T10:00:22.688Z,92.19
2017-11-01T10:02:50.222Z,91.54
2017-11-01T10:05:18.443Z,91.54
2017-11-01T10:07:45.951Z,91.17
2017-11-01T10:10:13.354Z,91.29
2017-11-01T10:12:40.802Z,91.09
2017-11-01T10:15:08.207Z,91.32
2017-11-01T10:17:35.632Z,91.46
2017-11-01T10:20:03.087Z,91.14
2017-11-01T10:22:30.489Z,90.41
2017-11-01T10:24:57.890Z,89.87
2017-11-01T10:27:25.291Z,89.48
2017-11-01T10:29:52.816Z,89.78
2017-11-01T10:32:20.255Z,89.95
2017-11-01T10:34:47.699Z,91.06
2017-11-01T10:37:15.175Z,90.24
2017-11-01T10:39:42.571Z,91.22
2017-11-01T10:42:10.089Z,91.70
2017-11-01T10:44:37.511Z,91.92
2017-11-01T10:47:04.994Z,91.52
2017-11-01T10:49:32.402Z,91.02
2017-11-01T10:51:59.906Z,91.29
2017-11-01T10:54:27.303Z,90.77
2017-11-01T10:56:54.725Z,90.71
2017-11-01T10:59:22.119Z,90.80
2017-11-01T11:01:49.558Z,90.98
2017-11-01T11:04:16.986Z,90.92
2017-11-01T11:06:44.390Z,90.83
2017-11-01T11:09:11.791Z,90.57
2017-11-01T11:11:39.275Z,90.25
2017-11-01T11:14:06.682Z,90.12
2017-11-01T11:16:34.085Z,90.11
2017-11-01T11:19:01.529Z,89.76
2017-11-01T11:21:28.982Z,89.43
2017-11-01T11:23:56.440Z,90.22
2017-11-01T11:26:23.891Z,89.92
2017-11-01T11:28:51.295Z,90.29
2017-11-01T11:31:18.811Z,90.01
2017-11-01T11:33:46.227Z,90.28
2017-11-01T11:36:13.727Z,90.28
2017-11-01T11:38:41.133Z,89.72
2017-11-01T11:41:08.540Z,89.22
2017-11-01T11:43:35.952Z,89.47
2017-11-01T11:46:03.353Z,90.16
2017-11-01T11:48:30.759Z,90.02
2017-11-01T11:50:58.157Z,89.55
2017-11-01T11:53:25.612Z,90.05
2017-11-01T11:55:53.076Z,89.68
2017-11-01T11:58:20.478Z,90.88
2017-11-01T12:00:47.888Z,91.05
2017-11-01T12:03:15.301Z,90.52
2017-11-01T12:05:42.695Z,90.15
2017-11-01T12:08:10.115Z,90.24
2017-11-01T12:10:37.607Z,90.00
2017-11-01T12:13:05.006Z,89.45
2017-11-01T12:15:32.523Z,89.16
2017-11-01T12:17:59.919Z,89.10
2017-11-01T12:20:27.323Z,89.58
2017-11-01T12:22:54.787Z,89.67
2017-11-01T12:25:22.190Z,89.15
2017-11-01T12:27:49.596Z,89.10
2017-11-01T12:30:16.995Z,89.07
2017-11-01T12:32:44.390Z,88.83
2017-11-01T12:35:11.865Z,89.25
2017-11-01T12:37:39.259Z,89.28
2017-11-01T12:40:06.671Z,89.53
2017-11-01T12:42:34.071Z,88.80
2017-11-01T12:45:01.471Z,88.62
2017-11-01T12:47:28.879Z,88.66
2017-11-01T12:49:56.284Z,88.91
2017-11-01T12:52:23.675Z,88.37
2017-11-01T12:54:51.098Z,88.11
2017-11-01T12:57:18.497Z,88.05
2017-11-01T12:59:45.928Z,87.93
2017-11-01T13:02:13.334Z,87.75
2017-11-01T13:04:40.739Z,88.33
2017-11-01T13:07:08.144Z,88.31
2017-11-01T13:09:35.542Z,88.08
2017-11-01T13:12:02.952Z,88.34
2017-11-01T13:14:30.349Z,87.94
2017-11-01T13:16:57.746Z,88.43
2017-11-01T13:19:25.147Z,88.12
2017-11-01T13:21:52.551Z,87.94
2017-11-01T13:24:19.947Z,87.27
2017-11-01T13:26:47.350Z,87.26
2017-11-01T13:29:14.743Z,87.32
2017-11-01T13:31:42.146Z,86.76
2017-11-01T13:34:09.608Z,87.10
2017-11-01T13:36:37.044Z,87.03
2017-11-01T13:39:04.434Z,87.35
2017-11-01T13:41:31.874Z,88.72
2017-11-01T13:43:59.279Z,88.46
2017-11-01T13:46:26.675Z,88.75
2017-11-01T13:48:54.101Z,88.58
2017-11-01T13:51:21.507Z,88.74
2017-11-01T13:53:48.951Z,88.23
2017-11-01T13:56:16.411Z,87.81
2017-11-01T13:58:43.815Z,88.40
2017-11-01T14:01:11.214Z,88.39
2017-11-01T14:03:38.627Z,88.25
2017-11-01T14:06:06.027Z,87.93
2017-11-01T14:08:33.434Z,88.09
2017-11-01T14:11:00.837Z,87.42
2017-11-01T14:13:28.283Z,87.14
2017-11-01T14:15:55.679Z,87.00
2017-11-01T14:18:23.083Z,86.77
2017-11-01T14:20:50.549Z,87.03
2017-11-01T14:23:17.994Z,86.98
2017-11-01T14:25:45.483Z,86.72
2017-11-01T14:28:12.884Z,87.79
2017-11-01T14:30:40.393Z,87.49
2017-11-01T14:33:07.779Z,87.29
2017-11-01T14:35:35.202Z,86.88
2017-11-01T14:38:02.593Z,86.19
2017-11-01T14:40:30.011Z,86.13
2017-11-01T14:42:57.467Z,86.29
2017-11-01T14:45:24.880Z,86.54
2017-11-01T14:47:52.279Z,86.62
2017-11-01T14:50:19.743Z,86.99
2017-11-01T14:52:47.195Z,87.03
2017-11-01T14:55:14.601Z,86.85
2017-11-01T14:57:42.023Z,86.55
2017-11-01T15:00:09.426Z,86.24
2017-11-01T15:02:36.929Z,85.69
2017-11-01T15:05:04.381Z,85.55
2017-11-01T15:07:31.975Z,85.23
2017-11-01T15:09:59.398Z,85.43
2017-11-01T15:12:26.853Z,85.85
2017-11-01T15:14:54.308Z,85.85
2017-11-01T15:17:21.710Z,85.80
2017-11-01T15:19:49.181Z,86.19
2017-11-01T15:22:16.679Z,86.56
2017-11-01T15:24:44.116Z,86.27
2017-11-01T15:27:11.607Z,85.67
2017-11-01T15:29:39.009Z,86.37
2017-11-01T15:32:06.400Z,86.43
2017-11-01T15:34:33.854Z,86.16
2017-11-01T15:37:01.258Z,85.77
2017-11-01T15:39:28.670Z,86.12
2017-11-01T15:41:56.132Z,85.58
2017-11-01T15:44:23.522Z,86.29
2017-11-01T15:46:51.035Z,86.21
2017-11-01T15:49:18.426Z,86.29
2017-11-01T15:51:45.830Z,86.46
2017-11-01T15:54:13.231Z,87.11
2017-11-01T15:56:40.679Z,87.09
2017-11-01T15:59:08.167Z,87.64
2017-11-01T16:01:35.567Z,88.06
2017-11-01T16:04:02.970Z,87.86
2017-11-01T16:06:30.387Z,87.53
2017-11-01T16:08:57.778Z,87.24
2017-11-01T16:11:25.175Z,87.40
2017-11-01T16:13:52.658Z,87.52
2017-11-01T16:16:20.111Z,87.66
2017-11-01T16:18:47.566Z,87.58
2017-11-01T16:21:14.976Z,87.46
2017-11-01T16:23:42.475Z,86.98
2017-11-01T16:26:09.873Z,86.61
2017-11-01T16:28:37.294Z,87.17
2017-11-01T16:31:04.695Z,87.25
2017-11-01T16:33:32.098Z,87.19
2017-11-01T16:35:59.494Z,86.87
2017-11-01T16:38:26.911Z,86.99
2017-11-01T16:40:54.362Z,87.84
2017-11-01T16:43:21.763Z,87.62
2017-11-01T16:45:49.163Z,87.37
2017-11-01T16:48:16.567Z,87.51
2017-11-01T16:50:43.967Z,87.41
2017-11-01T16:53:11.371Z,87.24
2017-11-01T16:55:38.794Z,87.58
2017-11-01T16:58:06.199Z,87.71
2017-11-01T17:00:33.606Z,87.81
2017-11-01T17:03:01.007Z,88.33
2017-11-01T17:05:28.438Z,88.37
2017-11-01T17:07:55.828Z,87.56
2017-11-01T17:10:23.339Z,87.69
2017-11-01T17:12:50.731Z,87.75
2017-11-01T17:15:18.129Z,87.77
2017-11-01T17:17:45.532Z,87.25
2017-11-01T17:20:12.956Z,88.01
2017-11-01T17:22:40.411Z,87.50
2017-11-01T17:25:07.865Z,87.45
2017-11-01T17:27:35.341Z,87.39
2017-11-01T17:30:03.751Z,87.32
2017-11-01T17:32:31.150Z,86.71
2017-11-01T17:34:58.554Z,86.86
2017-11-01T17:37:25.994Z,87.18
2017-11-01T17:39:53.395Z,86.68
2017-11-01T17:42:20.803Z,86.22
2017-11-01T17:44:48.202Z,86.77
2017-11-01T17:47:15.605Z,87.40
2017-11-01T17:49:43.059Z,87.94
2017-11-01T17:52:10.515Z,87.58
2017-11-01T17:54:37.915Z,86.96
2017-11-01T17:57:05.314Z,86.92
2017-11-01T17:59:32.794Z,86.37
2017-11-01T18:02:00.196Z,86.38
2017-11-01T18:04:27.696Z,86.28
2017-11-01T18:06:55.155Z,86.26
2017-11-01T18:09:22.563Z,86.20
2017-11-01T18:11:50.022Z,86.57
2017-11-01T18:14:17.432Z,85.92
2017-11-01T18:16:44.872Z,85.45
2017-11-01T18:19:12.371Z,85.35
2017-11-01T18:21:39.822Z,85.15
2017-11-01T18:24:07.232Z,85.09
2017-11-01T18:26:34.626Z,84.84
2017-11-01T18:29:02.050Z,85.04
2017-11-01T18:31:29.533Z,84.52
2017-11-01T18:33:56.926Z,84.11
2017-11-01T18:36:24.427Z,84.09
2017-11-01T18:38:51.891Z,84.36
2017-11-01T18:41:19.301Z,84.43
2017-11-01T18:43:46.694Z,84.53
2017-11-01T18:46:14.151Z,84.37
2017-11-01T18:48:41.539Z,84.55
2017-11-01T18:51:08.943Z,84.60
2017-11-01T18:53:36.426Z,84.12
2017-11-01T18:56:03.883Z,84.05
2017-11-01T18:58:31.279Z,84.00
2017-11-01T19:00:58.695Z,84.45
2017-11-01T19:03:26.087Z,84.55
2017-11-01T19:05:53.490Z,84.39
2017-11-01T19:08:20.882Z,84.40
2017-11-01T19:10:48.283Z,84.38
2017-11-01T19:13:15.687Z,83.99
2017-11-01T19:15:43.084Z,84.33
2017-11-01T19:18:10.501Z,84.40
2017-11-01T19:20:37.882Z,84.55
2017-11-01T19:23:05.297Z,84.65
2017-11-01T19:25:32.687Z,84.89
2017-11-01T19:28:00.100Z,84.49
2017-11-01T19:30:27.494Z,84.68
2017-11-01T19:32:54.903Z,84.26
2017-11-01T19:35:22.306Z,84.50
2017-11-01T19:37:49.715Z,84.63
2017-11-01T19:40:17.117Z,84.38
2017-11-01T19:42:44.536Z,84.70
2017-11-01T19:45:11.931Z,84.71
2017-11-01T19:47:39.332Z,84.29
2017-11-01T19:50:06.726Z,84.29
2017-11-01T19:52:34.123Z,84.27
2017-11-01T19:55:01.531Z,84.73
2017-11-01T19:57:28.963Z,84.44
2017-11-01T19:59:56.355Z,84.27
2017-11-01T20:02:23.768Z,84.41
2017-11-01T20:04:51.155Z,84.46
2017-11-01T20:07:18.560Z,84.89
2017-11-01T20:09:45.967Z,84.56
2017-11-01T20:12:13.366Z,85.01
2017-11-01T20:14:40.766Z,84.59
2017-11-01T20:17:08.191Z,84.39
2017-11-01T20:19:35.585Z,84.01
2017-11-01T20:22:02.991Z,84.54
2017-11-01T20:24:30.390Z,84.22
2017-11-01T20:26:57.791Z,84.54
2017-11-01T20:29:25.189Z,84.28
2017-11-01T20:31:52.583Z,84.20
2017-11-01T20:34:19.988Z,84.20
2017-11-01T20:36:47.387Z,83.90
2017-11-01T20:39:14.800Z,84.93
2017-11-01T20:41:42.195Z,84.70
2017-11-01T20:44:09.599Z,84.58
2017-11-01T20:46:36.988Z,84.25
2017-11-01T20:49:04.393Z,84.17
2017-11-01T20:51:31.817Z,84.31
2017-11-01T20:53:59.219Z,84.11
2017-11-01T20:56:26.613Z,84.40
2017-11-01T20:58:54.015Z,83.92
2017-11-01T21:01:21.414Z,83.25
2017-11-01T21:03:48.819Z,83.17
2017-11-01T21:06:16.211Z,82.81
2017-11-01T21:08:43.623Z,83.62
2017-11-01T21:11:11.025Z,83.79
2017-11-01T21:13:38.439Z,83.33
2017-11-01T21:16:05.851Z,83.22
2017-11-01T21:18:33.250Z,83.16
2017-11-01T21:21:00.642Z,82.70
2017-11-01T21:23:28.042Z,83.17
2017-11-01T21:25:55.442Z,82.78
2017-11-01T21:28:22.839Z,82.63
2017-11-01T21:30:50.245Z,81.98
2017-11-01T21:33:17.655Z,81.94
2017-11-01T21:35:45.068Z,82.06
2017-11-01T21:38:12.460Z,82.72
2017-11-01T21:40:39.868Z,83.03
2017-11-01T21:43:07.288Z,82.71
2017-11-01T21:45:34.667Z,82.03
2017-11-01T21:48:02.063Z,82.94
2017-11-01T21:50:29.471Z,83.05
2017-11-01T21:52:56.878Z,82.47
2017-11-01T21:55:24.293Z,82.72
2017-11-01T21:57:51.691Z,82.81
2017-11-01T22:00:19.104Z,82.44
2017-11-01T22:02:46.487Z,82.41
2017-11-01T22:05:13.892Z,81.89
2017-11-01T22:07:41.283Z,81.86
2017-11-01T22:10:08.683Z,81.55
2017-11-01T22:12:36.091Z,81.47
2017-11-01T22:15:03.487Z,80.67
2017-11-01T22:17:30.887Z,80.69
2017-11-01T22:19:58.278Z,80.37
2017-11-01T22:22:25.681Z,80.35
2017-11-01T22:24:53.114Z,80.45
2017-11-01T22:27:20.507Z,79.92
2017-11-01T22:29:47.896Z,79.47
2017-11-01T22:32:15.389Z,78.87
2017-11-01T22:34:42.842Z,79.09
2017-11-01T22:37:10.236Z,79.45
2017-11-01T22:39:37.635Z,78.80
2017-11-01T22:42:05.042Z,78.21
2017-11-01T22:44:32.449Z,78.22
2017-11-01T22:46:59.846Z,79.40
2017-11-01T22:49:27.244Z,79.33
2017-11-01T22:51:54.644Z,79.93
2017-11-01T22:54:22.050Z,80.20
2017-11-01T22:56:49.457Z,80.41
2017-11-01T22:59:16.879Z,80.07
2017-11-01T23:01:44.284Z,79.79
2017-11-01T23:04:11.783Z,79.57
2017-11-01T23:06:39.247Z,78.62
2017-11-01T23:09:06.650Z,78.90
2017-11-01T23:11:34.041Z,78.51
2017-11-01T23:14:01.460Z,78.39
2017-11-01T23:16:28.855Z,78.57
2017-11-01T23:18:56.272Z,77.03
2017-11-01T23:21:23.669Z,76.34
2017-11-01T23:23:51.058Z,77.69
2017-11-01T23:26:18.462Z,77.38
2017-11-01T23:28:45.866Z,77.87
2017-11-01T23:31:13.266Z,78.34
2017-11-01T23:33:40.668Z,78.74
2017-11-01T23:36:08.066Z,79.26
2017-11-01T23:38:35.471Z,79.39
2017-11-01T23:41:02.926Z,78.37
2017-11-01T23:43:30.326Z,79.01
2017-11-01T23:45:57.718Z,79.77
2017-11-01T23:48:25.125Z,79.70
2017-11-01T23:50:52.514Z,79.70
2017-11-01T23:53:19.918Z,78.09
2017-11-01T23:55:47.363Z,77.91
2017-11-01T23:58:14.778Z,77.54
